Time;durP1;ratioP1;P1;durP2;ratioP2;P2;SDS_P1;SDS_P2;PMS_P1;PMS_P2;Temp;Humidity;BMP_temperature;BMP_pressure;BME280_temperature;BME280_humidity;BME280_pressure;Samples;Min_cycle;Max_cycle;Signal;HPM_P1;HPM_P2
2020/04/22 00:00:53;;;;;;;6.300001;3.9;;;;;;;8.84;42.92773;94992.08;;;;
2020/04/22 00:02:03;;;;;;;6.300001;3.9;;;;;;;8.84;42.92773;94992.08;;;;
2020/04/22 00:03:10;;;;;;;4.199999;3.55;;;;;;;8.77;43.01855;94990.44;;;;
2020/04/22 00:05:21;;;;;;;4.199999;3.55;;;;;;;8.77;43.01855;94990.44;;;;
2020/04/22 00:06:28;;;;;;;3.7;3.3;;;;;;;8.71;43.22754;94991.36;;;;
2020/04/22 00:12:53;;;;;;;4.7;3.5;;;;;;;8.59;43.50586;94988.25;;;;
2020/04/22 00:14:01;;;;;;;4.900001;3.45;;;;;;;8.54;43.62891;94984.61;;;;
2020/04/22 00:20:20;;;;;;;4.7;3.55;;;;;;;8.41;44.03613;94988.31;;;;
2020/04/22 00:22:35;;;;;;;5.3;3.25;;;;;;;8.34;44.16797;94988.53;;;;
2020/04/22 00:23:41;;;;;;;5.3;3.25;;;;;;;8.34;44.16797;94988.53;;;;
2020/04/22 00:24:54;;;;;;;4.9;3.45;;;;;;;8.26;44.32129;94992.77;;;;
2020/04/22 00:26:09;;;;;;;4.9;3.45;;;;;;;8.26;44.32129;94992.77;;;;
2020/04/22 00:27:27;;;;;;;6.55;3.8;;;;;;;8.19;44.58301;94989.33;;;;
2020/04/22 00:28:36;;;;;;;6.55;3.8;;;;;;;8.19;44.58301;94989.33;;;;
2020/04/22 00:30:18;;;;;;;3.75;3.35;;;;;;;8.12;44.83301;94987.35;;;;
2020/04/22 00:34:39;;;;;;;3.95;3.55;;;;;;;8.05;45.06055;94986.63;;;;
2020/04/22 00:35:49;;;;;;;3.95;3.55;;;;;;;8.05;45.06055;94986.63;;;;
2020/04/22 00:37:01;;;;;;;3.95;3.55;;;;;;;8.05;45.06055;94986.63;;;;
2020/04/22 00:43:24;;;;;;;3.950001;3.15;;;;;;;7.43;44.46191;94989.04;;;;
2020/04/22 00:44:36;;;;;;;3.950001;3.15;;;;;;;7.43;44.46191;94989.04;;;;
2020/04/22 00:45:53;;;;;;;6.5;3.15;;;;;;;7.35;44.98828;94987.59;;;;
2020/04/22 00:47:11;;;;;;;6.5;3.15;;;;;;;7.35;44.98828;94987.59;;;;
2020/04/22 00:48:26;;;;;;;6.5;3.15;;;;;;;7.35;44.98828;94987.59;;;;
2020/04/22 00:49:35;;;;;;;6.5;3.15;;;;;;;7.35;44.98828;94987.59;;;;
2020/04/22 00:56:03;;;;;;;5.3;3.1;;;;;;;6.88;44.71387;94999;;;;
2020/04/22 00:57:15;;;;;;;5.3;3.1;;;;;;;6.88;44.71387;94999;;;;
2020/04/22 01:04:10;;;;;;;4.55;3.05;;;;;;;6.83;45.16992;94994.41;;;;
2020/04/22 01:05:25;;;;;;;4.55;3.05;;;;;;;6.83;45.16992;94994.41;;;;
2020/04/22 01:07:12;;;;;;;4.55;3.05;;;;;;;6.83;45.16992;94994.41;;;;
2020/04/22 01:08:22;;;;;;;4.55;3.05;;;;;;;6.83;45.16992;94994.41;;;;
2020/04/22 01:12:32;;;;;;;5.499999;3.25;;;;;;;6.39;45.51953;94987.33;;;;
2020/04/22 01:13:32;;;;;;;5.499999;3.25;;;;;;;6.39;45.51953;94987.33;;;;
2020/04/22 01:14:34;;;;;;;5.499999;3.25;;;;;;;6.39;45.51953;94987.33;;;;
2020/04/22 01:15:35;;;;;;;5.499999;3.25;;;;;;;6.39;45.51953;94987.33;;;;
2020/04/22 01:16:36;;;;;;;5.499999;3.25;;;;;;;6.39;45.51953;94987.33;;;;
2020/04/22 01:17:40;;;;;;;5.499999;3.25;;;;;;;6.39;45.51953;94987.33;;;;
2020/04/22 01:18:44;;;;;;;5.499999;3.25;;;;;;;6.39;45.51953;94987.33;;;;
2020/04/22 01:19:45;;;;;;;5.499999;3.25;;;;;;;6.39;45.51953;94987.33;;;;
2020/04/22 01:20:49;;;;;;;5.499999;3.25;;;;;;;6.39;45.51953;94987.33;;;;
2020/04/22 01:21:50;;;;;;;3.2;2.6;;;;;;;6.16;45.55859;94986.66;;;;
2020/04/22 01:22:52;;;;;;;3.2;2.6;;;;;;;6.16;45.55859;94986.66;;;;
2020/04/22 01:23:53;;;;;;;3.2;2.6;;;;;;;6.16;45.55859;94986.66;;;;
2020/04/22 01:24:57;;;;;;;4.349999;3.1;;;;;;;6.19;45.93652;94984.78;;;;
2020/04/22 01:25:57;;;;;;;4.349999;3.1;;;;;;;6.19;45.93652;94984.78;;;;
2020/04/22 01:26:58;;;;;;;4.349999;3.1;;;;;;;6.19;45.93652;94984.78;;;;
2020/04/22 01:27:58;;;;;;;4.55;3.25;;;;;;;6.29;46.36328;94989.68;;;;
2020/04/22 01:29:00;;;;;;;4.55;3.25;;;;;;;6.29;46.36328;94989.68;;;;
2020/04/22 01:30:01;;;;;;;5.25;2.95;;;;;;;6.34;46.91406;94986.66;;;;
2020/04/22 01:31:07;;;;;;;5.25;2.95;;;;;;;6.34;46.91406;94986.66;;;;
2020/04/22 01:32:08;;;;;;;5.25;2.95;;;;;;;6.34;46.91406;94986.66;;;;
2020/04/22 01:33:11;;;;;;;5.25;2.95;;;;;;;6.34;46.91406;94986.66;;;;
2020/04/22 01:34:14;;;;;;;5.25;2.95;;;;;;;6.34;46.91406;94986.66;;;;
2020/04/22 01:35:15;;;;;;;5.25;2.95;;;;;;;6.34;46.91406;94986.66;;;;
2020/04/22 01:36:18;;;;;;;5.25;2.95;;;;;;;6.34;46.91406;94986.66;;;;
2020/04/22 01:37:19;;;;;;;5.25;2.95;;;;;;;6.34;46.91406;94986.66;;;;
2020/04/22 01:38:20;;;;;;;5.25;2.95;;;;;;;6.34;46.91406;94986.66;;;;
2020/04/22 01:39:21;;;;;;;5.25;2.95;;;;;;;6.34;46.91406;94986.66;;;;
2020/04/22 01:40:22;;;;;;;4.15;2.9;;;;;;;6.11;46.24707;94997.22;;;;
2020/04/22 01:41:26;;;;;;;4.15;2.9;;;;;;;6.11;46.24707;94997.22;;;;
2020/04/22 01:42:30;;;;;;;4.15;2.9;;;;;;;6.11;46.24707;94997.22;;;;
2020/04/22 01:43:36;;;;;;;3.7;2.95;;;;;;;6.1;46.74902;94991.44;;;;
2020/04/22 01:44:38;;;;;;;3.7;2.95;;;;;;;6.1;46.74902;94991.44;;;;
2020/04/22 01:45:41;;;;;;;3.7;2.95;;;;;;;6.1;46.74902;94991.44;;;;
2020/04/22 01:46:47;;;;;;;3.7;2.95;;;;;;;6.1;46.74902;94991.44;;;;
2020/04/22 01:47:48;;;;;;;3.7;2.95;;;;;;;6.1;46.74902;94991.44;;;;
2020/04/22 01:48:49;;;;;;;3.7;2.95;;;;;;;6.1;46.74902;94991.44;;;;
2020/04/22 01:49:49;;;;;;;3.7;2.95;;;;;;;6.1;46.74902;94991.44;;;;
2020/04/22 01:50:50;;;;;;;3.7;2.95;;;;;;;6.1;46.74902;94991.44;;;;
2020/04/22 01:51:56;;;;;;;3.7;2.95;;;;;;;6.1;46.74902;94991.44;;;;
2020/04/22 01:52:58;;;;;;;3.7;2.95;;;;;;;6.1;46.74902;94991.44;;;;
2020/04/22 01:54:00;;;;;;;4.099999;2.95;;;;;;;5.94;46.14355;94996.09;;;;
2020/04/22 01:55:01;;;;;;;4.099999;2.95;;;;;;;5.94;46.14355;94996.09;;;;
2020/04/22 01:56:07;;;;;;;4.099999;2.95;;;;;;;5.94;46.14355;94996.09;;;;
2020/04/22 01:57:10;;;;;;;4.9;3.1;;;;;;;5.94;46.7207;94995.54;;;;
2020/04/22 01:58:15;;;;;;;4.9;3.1;;;;;;;5.94;46.7207;94995.54;;;;
2020/04/22 01:59:36;;;;;;;4.9;3.1;;;;;;;5.94;46.7207;94995.54;;;;
2020/04/22 02:00:37;;;;;;;4.9;3.1;;;;;;;5.94;46.7207;94995.54;;;;
2020/04/22 02:01:38;;;;;;;4.9;3.1;;;;;;;5.94;46.7207;94995.54;;;;
2020/04/22 02:02:39;;;;;;;4.9;3.1;;;;;;;5.94;46.7207;94995.54;;;;
2020/04/22 02:03:41;;;;;;;4.9;3.1;;;;;;;5.94;46.7207;94995.54;;;;
2020/04/22 02:04:42;;;;;;;4.9;3.1;;;;;;;5.94;46.7207;94995.54;;;;
2020/04/22 02:05:42;;;;;;;4.9;3.1;;;;;;;5.94;46.7207;94995.54;;;;
2020/04/22 02:06:43;;;;;;;4.9;3.1;;;;;;;5.94;46.7207;94995.54;;;;
2020/04/22 02:08:16;;;;;;;6.9;3.05;;;;;;;5.76;46.41309;94994.48;;;;
2020/04/22 02:09:43;;;;;;;6.9;3.05;;;;;;;5.76;46.41309;94994.48;;;;
2020/04/22 02:15:24;;;;;;;4.7;2.95;;;;;;;5.77;46.92676;95002.01;;;;
2020/04/22 02:16:47;;;;;;;4.7;2.95;;;;;;;5.77;46.92676;95002.01;;;;
2020/04/22 02:17:56;;;;;;;4.7;2.95;;;;;;;5.77;46.92676;95002.01;;;;
2020/04/22 02:19:04;;;;;;;4.7;2.95;;;;;;;5.77;46.92676;95002.01;;;;
2020/04/22 02:20:16;;;;;;;3.5;2.9;;;;;;;5.56;46.64648;94999.63;;;;
2020/04/22 02:21:23;;;;;;;3.5;2.9;;;;;;;5.56;46.64648;94999.63;;;;
2020/04/22 02:22:31;;;;;;;3.5;2.9;;;;;;;5.56;46.64648;94999.63;;;;
2020/04/22 02:23:48;;;;;;;4.8;2.900001;;;;;;;5.54;47.18848;94999.44;;;;
2020/04/22 02:30:24;;;;;;;4.8;2.900001;;;;;;;5.54;47.18848;94999.44;;;;
2020/04/22 02:36:45;;;;;;;7.15;2.900001;;;;;;;5.29;47.54492;94991.8;;;;
2020/04/22 02:37:53;;;;;;;7.15;2.900001;;;;;;;5.29;47.54492;94991.8;;;;
2020/04/22 02:39:00;;;;;;;7.15;2.900001;;;;;;;5.29;47.54492;94991.8;;;;
2020/04/22 02:40:43;;;;;;;7.15;2.900001;;;;;;;5.29;47.54492;94991.8;;;;
2020/04/22 02:41:56;;;;;;;7.15;2.900001;;;;;;;5.29;47.54492;94991.8;;;;
2020/04/22 02:43:03;;;;;;;7.15;2.900001;;;;;;;5.29;47.54492;94991.8;;;;
2020/04/22 02:44:12;;;;;;;7.15;2.900001;;;;;;;5.29;47.54492;94991.8;;;;
2020/04/22 02:46:11;;;;;;;7.15;2.900001;;;;;;;5.29;47.54492;94991.8;;;;
2020/04/22 02:53:35;;;;;;;4.1;3.2;;;;;;;5.1;47.85352;95002.44;;;;
2020/04/22 02:55:00;;;;;;;4.1;3.2;;;;;;;5.1;47.85352;95002.44;;;;
2020/04/22 02:56:09;;;;;;;4.1;3.2;;;;;;;5.1;47.85352;95002.44;;;;
2020/04/22 02:57:50;;;;;;;4.1;3.2;;;;;;;5.1;47.85352;95002.44;;;;
2020/04/22 02:58:58;;;;;;;4.1;3.2;;;;;;;5.1;47.85352;95002.44;;;;
2020/04/22 03:00:08;;;;;;;3.8;2.8;;;;;;;4.87;47.58398;95004.24;;;;
2020/04/22 03:01:25;;;;;;;3.8;2.8;;;;;;;4.87;47.58398;95004.24;;;;
2020/04/22 03:02:47;;;;;;;3.85;2.950001;;;;;;;4.87;48.20117;94993.63;;;;
2020/04/22 03:03:53;;;;;;;3.85;2.950001;;;;;;;4.87;48.20117;94993.63;;;;
2020/04/22 03:05:23;;;;;;;3.85;2.950001;;;;;;;4.87;48.20117;94993.63;;;;
2020/04/22 03:07:05;;;;;;;3.85;2.950001;;;;;;;4.87;48.20117;94993.63;;;;
2020/04/22 03:08:12;;;;;;;3.85;2.950001;;;;;;;4.87;48.20117;94993.63;;;;
2020/04/22 03:09:21;;;;;;;3.85;2.950001;;;;;;;4.87;48.20117;94993.63;;;;
2020/04/22 03:10:29;;;;;;;3.85;2.950001;;;;;;;4.87;48.20117;94993.63;;;;
2020/04/22 03:17:53;;;;;;;4;3.1;;;;;;;4.65;48.54883;95001.98;;;;
2020/04/22 03:19:03;;;;;;;4;3.1;;;;;;;4.65;48.54883;95001.98;;;;
2020/04/22 03:20:14;;;;;;;4;3.1;;;;;;;4.65;48.54883;95001.98;;;;
2020/04/22 03:21:24;;;;;;;4;3.1;;;;;;;4.65;48.54883;95001.98;;;;
2020/04/22 03:22:29;;;;;;;4;3.1;;;;;;;4.65;48.54883;95001.98;;;;
2020/04/22 03:23:40;;;;;;;4;3.1;;;;;;;4.65;48.54883;95001.98;;;;
2020/04/22 03:24:47;;;;;;;4;3.1;;;;;;;4.65;48.54883;95001.98;;;;
2020/04/22 03:25:57;;;;;;;4;3.1;;;;;;;4.65;48.54883;95001.98;;;;
2020/04/22 03:27:05;;;;;;;3.550001;2.8;;;;;;;4.44;48.26953;94996.84;;;;
2020/04/22 03:28:12;;;;;;;3.550001;2.8;;;;;;;4.44;48.26953;94996.84;;;;
2020/04/22 03:29:20;;;;;;;5.349999;2.95;;;;;;;4.43;48.93848;94996.94;;;;
2020/04/22 03:31:02;;;;;;;5.349999;2.95;;;;;;;4.43;48.93848;94996.94;;;;
2020/04/22 03:37:56;;;;;;;5.349999;2.95;;;;;;;4.43;48.93848;94996.94;;;;
2020/04/22 03:39:11;;;;;;;5.349999;2.95;;;;;;;4.43;48.93848;94996.94;;;;
2020/04/22 03:40:22;;;;;;;3.7;2.75;;;;;;;4.22;48.61621;94994.47;;;;
2020/04/22 03:42:47;;;;;;;3.7;2.75;;;;;;;4.22;48.61621;94994.47;;;;
2020/04/22 03:44:59;;;;;;;3.8;3.05;;;;;;;4.21;49.21094;94992.72;;;;
2020/04/22 03:51:21;;;;;;;3.8;3.05;;;;;;;4.21;49.21094;94992.72;;;;
2020/04/22 03:52:28;;;;;;;3.8;3.05;;;;;;;4.21;49.21094;94992.72;;;;
2020/04/22 03:53:35;;;;;;;4.75;3;;;;;;;4;48.89941;94990.23;;;;
2020/04/22 03:54:45;;;;;;;4.75;3;;;;;;;4;48.89941;94990.23;;;;
2020/04/22 03:55:56;;;;;;;5.9;3.45;;;;;;;4.01;49.55957;94996.78;;;;
2020/04/22 03:57:06;;;;;;;5.9;3.45;;;;;;;4.01;49.55957;94996.78;;;;
2020/04/22 03:58:21;;;;;;;5.9;3.45;;;;;;;4.01;49.55957;94996.78;;;;
2020/04/22 03:59:28;;;;;;;5.9;3.45;;;;;;;4.01;49.55957;94996.78;;;;
2020/04/22 04:01:41;;;;;;;5.9;3.45;;;;;;;4.01;49.55957;94996.78;;;;
2020/04/22 04:02:47;;;;;;;5.9;3.45;;;;;;;4.01;49.55957;94996.78;;;;
2020/04/22 04:03:49;;;;;;;5.9;3.45;;;;;;;4.01;49.55957;94996.78;;;;
2020/04/22 04:04:55;;;;;;;5.9;3.45;;;;;;;4.01;49.55957;94996.78;;;;
2020/04/22 04:06:05;;;;;;;5.15;3.1;;;;;;;3.86;49.23438;95002;;;;
2020/04/22 04:07:22;;;;;;;5.15;3.1;;;;;;;3.86;49.23438;95002;;;;
2020/04/22 04:08:34;;;;;;;5.15;3.1;;;;;;;3.86;49.23438;95002;;;;
2020/04/22 04:09:51;;;;;;;4.2;2.75;;;;;;;3.87;49.86133;95007.14;;;;
2020/04/22 04:11:01;;;;;;;4.2;2.75;;;;;;;3.87;49.86133;95007.14;;;;
2020/04/22 04:12:10;;;;;;;4.2;2.75;;;;;;;3.87;49.86133;95007.14;;;;
2020/04/22 04:13:26;;;;;;;4.2;2.75;;;;;;;3.87;49.86133;95007.14;;;;
2020/04/22 04:14:54;;;;;;;4.2;2.75;;;;;;;3.87;49.86133;95007.14;;;;
2020/04/22 04:16:08;;;;;;;4.2;2.75;;;;;;;3.87;49.86133;95007.14;;;;
2020/04/22 04:22:40;;;;;;;4;3.2;;;;;;;3.76;49.55176;95006.8;;;;
2020/04/22 04:29:01;;;;;;;4;3.2;;;;;;;3.76;49.55176;95006.8;;;;
2020/04/22 04:30:23;;;;;;;3.8;3.2;;;;;;;3.72;49.33398;95018.51;;;;
2020/04/22 04:31:32;;;;;;;3.8;3.2;;;;;;;3.72;49.33398;95018.51;;;;
2020/04/22 04:32:39;;;;;;;3.8;3.2;;;;;;;3.72;49.33398;95018.51;;;;
2020/04/22 04:33:47;;;;;;;3.8;3.2;;;;;;;3.72;49.33398;95018.51;;;;
2020/04/22 04:34:53;;;;;;;3.8;3.2;;;;;;;3.72;49.33398;95018.51;;;;
2020/04/22 04:36:03;;;;;;;3.8;3.2;;;;;;;3.72;49.33398;95018.51;;;;
2020/04/22 04:37:13;;;;;;;3.8;3.2;;;;;;;3.72;49.33398;95018.51;;;;
2020/04/22 04:38:40;;;;;;;3.8;3.2;;;;;;;3.72;49.33398;95018.51;;;;
2020/04/22 04:39:47;;;;;;;3.8;3.2;;;;;;;3.72;49.33398;95018.51;;;;
2020/04/22 04:41:02;;;;;;;5.899999;3.25;;;;;;;3.68;49.23438;95027.51;;;;
2020/04/22 04:47:51;;;;;;;4.05;3.1;;;;;;;3.74;49.83594;95023.94;;;;
2020/04/22 04:48:57;;;;;;;4.05;3.1;;;;;;;3.74;49.83594;95023.94;;;;
2020/04/22 04:50:06;;;;;;;4.05;3.1;;;;;;;3.74;49.83594;95023.94;;;;
2020/04/22 04:52:19;;;;;;;4.05;3.1;;;;;;;3.74;49.83594;95023.94;;;;
2020/04/22 04:53:29;;;;;;;4.05;3.1;;;;;;;3.74;49.83594;95023.94;;;;
2020/04/22 04:54:37;;;;;;;3.849999;2.95;;;;;;;3.78;49.62695;95033.29;;;;
2020/04/22 05:01:00;;;;;;;3.849999;2.95;;;;;;;3.78;49.62695;95033.29;;;;
2020/04/22 05:02:09;;;;;;;3.849999;2.95;;;;;;;3.78;49.62695;95033.29;;;;
2020/04/22 05:04:27;;;;;;;3.849999;2.95;;;;;;;3.78;49.62695;95033.29;;;;
2020/04/22 05:05:40;;;;;;;4.8;3.25;;;;;;;3.98;49.40723;95043.11;;;;
2020/04/22 05:07:03;;;;;;;4.8;3.25;;;;;;;3.98;49.40723;95043.11;;;;
2020/04/22 05:08:09;;;;;;;4.8;3.25;;;;;;;3.98;49.40723;95043.11;;;;
2020/04/22 05:09:18;;;;;;;4.8;3.25;;;;;;;3.98;49.40723;95043.11;;;;
2020/04/22 05:10:31;;;;;;;4.8;3.25;;;;;;;3.98;49.40723;95043.11;;;;
2020/04/22 05:11:47;;;;;;;4.8;3.25;;;;;;;3.98;49.40723;95043.11;;;;
2020/04/22 05:12:59;;;;;;;4.8;3.25;;;;;;;3.98;49.40723;95043.11;;;;
2020/04/22 05:14:08;;;;;;;4.8;3.25;;;;;;;3.98;49.40723;95043.11;;;;
2020/04/22 05:15:36;;;;;;;4.600001;3.05;;;;;;;4.26;49.33398;95046.36;;;;
2020/04/22 05:17:14;;;;;;;4.600001;3.05;;;;;;;4.26;49.33398;95046.36;;;;
2020/04/22 05:18:22;;;;;;;4.600001;3.05;;;;;;;4.26;49.33398;95046.36;;;;
2020/04/22 05:24:50;;;;;;;4.600001;3.05;;;;;;;4.26;49.33398;95046.36;;;;
2020/04/22 05:26:10;;;;;;;5.15;3.35;;;;;;;4.78;48.93457;95042.5;;;;
2020/04/22 05:32:37;;;;;;;5.15;3.35;;;;;;;4.78;48.93457;95042.5;;;;
2020/04/22 05:33:45;;;;;;;5.15;3.35;;;;;;;4.78;48.93457;95042.5;;;;
2020/04/22 05:34:54;;;;;;;5.15;3.35;;;;;;;4.78;48.93457;95042.5;;;;
2020/04/22 05:36:05;;;;;;;5.15;3.35;;;;;;;4.78;48.93457;95042.5;;;;
2020/04/22 05:37:47;;;;;;;6.650001;3.9;;;;;;;5.32;48.74121;95047.58;;;;
2020/04/22 05:39:58;;;;;;;5.600001;4.199999;;;;;;;5.51;49.25293;95048.03;;;;
2020/04/22 05:41:11;;;;;;;5.600001;4.199999;;;;;;;5.51;49.25293;95048.03;;;;
2020/04/22 05:47:34;;;;;;;5.600001;4.199999;;;;;;;5.51;49.25293;95048.03;;;;
2020/04/22 05:48:57;;;;;;;5.600001;4.199999;;;;;;;5.51;49.25293;95048.03;;;;
2020/04/22 06:01:17;;;;;;;5.65;4;;;;;;;6.27;49.73535;95051.65;;;;
2020/04/22 06:02:27;;;;;;;5.65;4;;;;;;;6.27;49.73535;95051.65;;;;
2020/04/22 06:03:38;;;;;;;6.649999;4.25;;;;;;;6.79;49.1748;95066.47;;;;
2020/04/22 06:04:48;;;;;;;6.649999;4.25;;;;;;;6.79;49.1748;95066.47;;;;
2020/04/22 06:12:13;;;;;;;6.799999;4.45;;;;;;;6.98;49.62402;95067.75;;;;
2020/04/22 06:13:55;;;;;;;6.799999;4.45;;;;;;;6.98;49.62402;95067.75;;;;
2020/04/22 06:15:12;;;;;;;6.799999;4.45;;;;;;;6.98;49.62402;95067.75;;;;
2020/04/22 06:16:22;;;;;;;6;4.55;;;;;;;7.53;48.87402;95067.78;;;;
2020/04/22 06:22:56;;;;;;;7.2;4.649999;;;;;;;7.74;49.10156;95067.33;;;;
2020/04/22 06:24:03;;;;;;;7.2;4.649999;;;;;;;7.74;49.10156;95067.33;;;;
2020/04/22 06:36:26;;;;;;;7.450001;4.55;;;;;;;9.86;46.86621;95066.83;;;;
2020/04/22 06:37:40;;;;;;;8.15;5;;;;;;;10.54;46.03223;95072.85;;;;
2020/04/22 06:38:46;;;;;;;8.15;5;;;;;;;10.54;46.03223;95072.85;;;;
2020/04/22 06:39:54;;;;;;;8.15;5;;;;;;;10.54;46.03223;95072.85;;;;
2020/04/22 06:41:08;;;;;;;6.45;4.5;;;;;;;11.21;45.43359;95068.78;;;;
2020/04/22 06:42:15;;;;;;;6.45;4.5;;;;;;;11.21;45.43359;95068.78;;;;
2020/04/22 06:43:38;;;;;;;5.500001;4.5;;;;;;;11.87;44.48438;95076.09;;;;
2020/04/22 06:44:44;;;;;;;5.500001;4.5;;;;;;;11.87;44.48438;95076.09;;;;
2020/04/22 06:46:56;;;;;;;6.950001;4.699999;;;;;;;12.48;43.57031;95071.35;;;;
2020/04/22 06:53:18;;;;;;;7.149999;4.349999;;;;;;;13.99;41.15137;95066.4;;;;
2020/04/22 06:54:32;;;;;;;7.149999;4.349999;;;;;;;13.99;41.15137;95066.4;;;;
2020/04/22 06:55:39;;;;;;;7.149999;4.349999;;;;;;;13.99;41.15137;95066.4;;;;
2020/04/22 06:57:18;;;;;;;5.299999;4.3;;;;;;;14.45;40.82422;95065.59;;;;
2020/04/22 06:58:27;;;;;;;5.299999;4.3;;;;;;;14.45;40.82422;95065.59;;;;
2020/04/22 06:59:39;;;;;;;4.75;4.35;;;;;;;14.81;40.06055;95061.92;;;;
2020/04/22 07:00:45;;;;;;;4.75;4.35;;;;;;;14.81;40.06055;95061.92;;;;
2020/04/22 07:01:55;;;;;;;5.750001;4.45;;;;;;;15.11;39.37793;95064.7;;;;
2020/04/22 07:03:04;;;;;;;5.750001;4.45;;;;;;;15.11;39.37793;95064.7;;;;
2020/04/22 07:04:14;;;;;;;5.900001;4.5;;;;;;;15.41;38.76074;95059.89;;;;
2020/04/22 07:05:21;;;;;;;5.900001;4.5;;;;;;;15.41;38.76074;95059.89;;;;
2020/04/22 07:06:32;;;;;;;5.900001;4.5;;;;;;;15.41;38.76074;95059.89;;;;
2020/04/22 07:08:46;;;;;;;5.9;4.5;;;;;;;15.68;38.23633;95069.98;;;;
2020/04/22 07:15:34;;;;;;;5.15;4.349999;;;;;;;16.26;36.97266;95064.45;;;;
2020/04/22 07:21:39;;;;;;;6.35;4.45;;;;;;;16.59;36.66016;95072;;;;
2020/04/22 07:23:20;;;;;;;5.25;4.349999;;;;;;;16.73;36.19922;95066.22;;;;
2020/04/22 07:24:58;;;;;;;5.25;4.349999;;;;;;;16.73;36.19922;95066.22;;;;
2020/04/22 07:26:06;;;;;;;6.8;4.5;;;;;;;16.83;35.96582;95073.55;;;;
2020/04/22 07:27:15;;;;;;;6.8;4.5;;;;;;;16.83;35.96582;95073.55;;;;
2020/04/22 07:33:46;;;;;;;5.800001;4.349999;;;;;;;17.06;35.31543;95061.97;;;;
2020/04/22 07:40:08;;;;;;;5.75;4.45;;;;;;;17.1;34.72559;95065.64;;;;
2020/04/22 07:41:17;;;;;;;6.450001;4.45;;;;;;;17.04;34.62109;95070.84;;;;
2020/04/22 07:42:36;;;;;;;6.450001;4.45;;;;;;;17.04;34.62109;95070.84;;;;
2020/04/22 07:43:47;;;;;;;8.5;4.6;;;;;;;17.06;34.65527;95074.24;;;;
2020/04/22 07:44:57;;;;;;;8.5;4.6;;;;;;;17.06;34.65527;95074.24;;;;
2020/04/22 07:47:10;;;;;;;8.5;4.6;;;;;;;17.06;34.65527;95074.24;;;;
2020/04/22 07:53:27;;;;;;;6.55;4.400001;;;;;;;17.14;34.62891;95080.49;;;;
2020/04/22 07:54:41;;;;;;;5.349999;4.1;;;;;;;17.27;34.54004;95077.14;;;;
2020/04/22 07:56:19;;;;;;;5.349999;4.1;;;;;;;17.27;34.54004;95077.14;;;;
2020/04/22 07:57:28;;;;;;;5.85;4.2;;;;;;;17.45;34.63086;95077.44;;;;
2020/04/22 07:58:46;;;;;;;5.85;4.2;;;;;;;17.45;34.63086;95077.44;;;;
2020/04/22 07:59:57;;;;;;;6.05;4.400001;;;;;;;17.66;34.16309;95070.75;;;;
2020/04/22 08:02:07;;;;;;;6.05;4.400001;;;;;;;17.66;34.16309;95070.75;;;;
2020/04/22 08:03:20;;;;;;;4.7;4.1;;;;;;;17.97;33.87988;95085.22;;;;
2020/04/22 08:04:36;;;;;;;4.7;4.1;;;;;;;17.97;33.87988;95085.22;;;;
2020/04/22 08:05:47;;;;;;;5.55;4.3;;;;;;;18.44;33.04492;95079.06;;;;
2020/04/22 08:06:57;;;;;;;5.55;4.3;;;;;;;18.44;33.04492;95079.06;;;;
2020/04/22 08:23:24;;;;;;;4.349999;3.900001;;;;;;;24.79;26.97949;95096.47;;;;
2020/04/22 08:24:36;;;;;;;5.7;3.9;;;;;;;25.77;25.73535;95099.36;;;;
2020/04/22 08:26:16;;;;;;;5.7;3.9;;;;;;;25.77;25.73535;95099.36;;;;
2020/04/22 08:27:26;;;;;;;5.2;4.15;;;;;;;26.72;24.75391;95094.11;;;;
2020/04/22 08:28:34;;;;;;;5.2;4.15;;;;;;;26.72;24.75391;95094.11;;;;
2020/04/22 08:29:47;;;;;;;5.199999;4.05;;;;;;;27.6;23.60547;95096.15;;;;
2020/04/22 08:31:02;;;;;;;5.199999;4.05;;;;;;;27.6;23.60547;95096.15;;;;
2020/04/22 08:32:10;;;;;;;7.5;4.050001;;;;;;;28.23;22.55371;95103.88;;;;
2020/04/22 08:39:19;;;;;;;5;4.25;;;;;;;29.47;21.51465;95092.66;;;;
2020/04/22 08:40:44;;;;;;;6.9;4.3;;;;;;;30.12;20.5918;95100.39;;;;
2020/04/22 08:43:03;;;;;;;6.9;4.3;;;;;;;30.12;20.5918;95100.39;;;;
2020/04/22 08:44:15;;;;;;;5.549999;3.95;;;;;;;30.7;19.95801;95097.09;;;;
2020/04/22 08:45:22;;;;;;;4.1;3.6;;;;;;;31.26;19.28809;95098.61;;;;
2020/04/22 08:46:30;;;;;;;4.1;3.6;;;;;;;31.26;19.28809;95098.61;;;;
2020/04/22 08:47:39;;;;;;;5.2;4.1;;;;;;;31.77;18.6709;95102.7;;;;
2020/04/22 08:48:50;;;;;;;5.2;4.1;;;;;;;31.77;18.6709;95102.7;;;;
2020/04/22 08:50:03;;;;;;;5.2;4.1;;;;;;;31.77;18.6709;95102.7;;;;
2020/04/22 08:56:30;;;;;;;4.599999;3.95;;;;;;;33.29;17.20996;95104.61;;;;
2020/04/22 08:57:46;;;;;;;4.599999;3.95;;;;;;;33.29;17.20996;95104.61;;;;
2020/04/22 08:59:04;;;;;;;5.2;4.099999;;;;;;;33.6;16.78613;95116.94;;;;
2020/04/22 09:01:14;;;;;;;5.2;4.099999;;;;;;;33.6;16.78613;95116.94;;;;
2020/04/22 09:02:21;;;;;;;7.199999;4.149999;;;;;;;33.87;16.32617;95115.16;;;;
2020/04/22 09:08:41;;;;;;;6.649999;4.3;;;;;;;34.66;16.00879;95112.94;;;;
2020/04/22 09:09:53;;;;;;;4.5;4.099999;;;;;;;34.98;15.56055;95114.48;;;;
2020/04/22 09:11:19;;;;;;;4.5;4.099999;;;;;;;34.98;15.56055;95114.48;;;;
2020/04/22 09:12:29;;;;;;;4.599999;4.099999;;;;;;;35.17;15.2793;95117.38;;;;
2020/04/22 09:18:52;;;;;;;5.65;4;;;;;;;35.57;14.88965;95107.84;;;;
2020/04/22 09:20:00;;;;;;;4.75;4.05;;;;;;;35.73;14.61816;95106.88;;;;
2020/04/22 09:21:10;;;;;;;4.75;4.05;;;;;;;35.73;14.61816;95106.88;;;;
2020/04/22 09:22:19;;;;;;;7.7;3.85;;;;;;;35.87;14.4502;95104.06;;;;
2020/04/22 09:23:31;;;;;;;7.7;3.85;;;;;;;35.87;14.4502;95104.06;;;;
2020/04/22 09:24:37;;;;;;;7.7;3.85;;;;;;;35.87;14.4502;95104.06;;;;
2020/04/22 09:25:45;;;;;;;5.9;4.45;;;;;;;36.12;14.34277;95108.11;;;;
2020/04/22 09:27:05;;;;;;;5.9;4.45;;;;;;;36.12;14.34277;95108.11;;;;
2020/04/22 09:29:17;;;;;;;6.1;3.95;;;;;;;36.21;13.9873;95097.85;;;;
2020/04/22 09:40:55;;;;;;;5;4;;;;;;;37.15;13.46094;95096.39;;;;
2020/04/22 09:43:03;;;;;;;5;4;;;;;;;37.15;13.46094;95096.39;;;;
2020/04/22 09:44:26;;;;;;;5.15;4.3;;;;;;;37.39;13.25977;95102.1;;;;
2020/04/22 09:45:34;;;;;;;5.15;4.3;;;;;;;37.39;13.25977;95102.1;;;;
2020/04/22 09:47:46;;;;;;;5.9;4.3;;;;;;;37.61;13.16211;95098.94;;;;
2020/04/22 09:49:11;;;;;;;6.25;4.149999;;;;;;;37.69;13.00195;95094.87;;;;
2020/04/22 09:50:20;;;;;;;6.25;4.149999;;;;;;;37.69;13.00195;95094.87;;;;
2020/04/22 09:51:30;;;;;;;5.699999;3.9;;;;;;;37.8;12.95898;95100.64;;;;
2020/04/22 09:52:39;;;;;;;5.699999;3.9;;;;;;;37.8;12.95898;95100.64;;;;
2020/04/22 09:53:50;;;;;;;6.150001;4;;;;;;;37.82;12.7627;95092.8;;;;
2020/04/22 09:55:05;;;;;;;6.150001;4;;;;;;;37.82;12.7627;95092.8;;;;
2020/04/22 09:56:13;;;;;;;6.150001;4;;;;;;;37.82;12.7627;95092.8;;;;
2020/04/22 09:57:36;;;;;;;6.600001;3.8;;;;;;;37.8;12.72754;95089.36;;;;
2020/04/22 09:58:59;;;;;;;6.600001;3.8;;;;;;;37.8;12.72754;95089.36;;;;
2020/04/22 10:00:08;;;;;;;6.45;4;;;;;;;37.92;12.76563;95097.94;;;;
2020/04/22 10:01:17;;;;;;;6.45;4;;;;;;;37.92;12.76563;95097.94;;;;
2020/04/22 10:02:31;;;;;;;5.7;4.099999;;;;;;;38.13;12.64355;95101.57;;;;
2020/04/22 10:03:40;;;;;;;5.7;4.099999;;;;;;;38.13;12.64355;95101.57;;;;
2020/04/22 10:04:52;;;;;;;4.199999;3.8;;;;;;;38.16;12.56348;95092.3;;;;
2020/04/22 10:06:00;;;;;;;4.199999;3.8;;;;;;;38.16;12.56348;95092.3;;;;
2020/04/22 10:07:09;;;;;;;5.150001;3.8;;;;;;;38.16;12.45898;95096.91;;;;
2020/04/22 10:08:21;;;;;;;5.150001;3.8;;;;;;;38.16;12.45898;95096.91;;;;
2020/04/22 10:09:34;;;;;;;5.150001;3.8;;;;;;;38.16;12.45898;95096.91;;;;
2020/04/22 10:11:14;;;;;;;5.05;3.900001;;;;;;;38.1;12.26074;95095.36;;;;
2020/04/22 10:12:22;;;;;;;7.2;4.149999;;;;;;;38.05;12.34082;95097.63;;;;
2020/04/22 10:19:01;;;;;;;5.849999;4.199999;;;;;;;38.17;12.25098;95092.88;;;;
2020/04/22 10:20:44;;;;;;;5.849999;4.199999;;;;;;;38.17;12.25098;95092.88;;;;
2020/04/22 10:21:52;;;;;;;6.95;4.25;;;;;;;38.22;12.35645;95087.41;;;;
2020/04/22 10:22:59;;;;;;;6.35;4.4;;;;;;;38.21;12.35645;95082.4;;;;
2020/04/22 10:24:08;;;;;;;6.35;4.4;;;;;;;38.21;12.35645;95082.4;;;;
2020/04/22 10:25:15;;;;;;;6.35;4.4;;;;;;;38.21;12.35645;95082.4;;;;
2020/04/22 10:26:24;;;;;;;5.699999;4.05;;;;;;;38.17;12.22754;95090.47;;;;
2020/04/22 10:32:38;;;;;;;7.25;4.25;;;;;;;38.06;12.41016;95078.06;;;;
2020/04/22 10:33:44;;;;;;;5.699999;4.05;;;;;;;38.07;12.49219;95084.7;;;;
2020/04/22 10:40:19;;;;;;;5.3;4;;;;;;;37.79;12.20605;95078.5;;;;
2020/04/22 10:41:35;;;;;;;4.8;3.8;;;;;;;37.58;12.37402;95081.86;;;;
2020/04/22 10:52:56;;;;;;;4.199999;3.8;;;;;;;37.34;12.36816;95080.81;;;;
2020/04/22 10:54:25;;;;;;;4.199999;3.8;;;;;;;37.34;12.36816;95080.81;;;;
2020/04/22 10:55:33;;;;;;;5.899999;4.05;;;;;;;37.32;12.41309;95083.43;;;;
2020/04/22 10:57:43;;;;;;;5.899999;4.05;;;;;;;37.32;12.41309;95083.43;;;;
2020/04/22 10:58:51;;;;;;;6.349999;4.2;;;;;;;37.36;12.4375;95085.02;;;;
2020/04/22 11:00:15;;;;;;;4.6;3.7;;;;;;;37.48;12.5332;95079.91;;;;
2020/04/22 11:01:30;;;;;;;4.6;3.7;;;;;;;37.48;12.5332;95079.91;;;;
2020/04/22 11:07:44;;;;;;;6.65;4.3;;;;;;;37.44;12.65918;95084.75;;;;
2020/04/22 11:08:45;;;;;;;6.65;4.3;;;;;;;37.44;12.65918;95084.75;;;;
2020/04/22 11:09:45;;;;;;;6.65;4.3;;;;;;;37.44;12.65918;95084.75;;;;
2020/04/22 11:10:46;;;;;;;5.799999;3.95;;;;;;;37.38;12.56543;95078.38;;;;
2020/04/22 11:11:46;;;;;;;5.799999;3.95;;;;;;;37.38;12.56543;95078.38;;;;
2020/04/22 11:12:47;;;;;;;5.799999;3.95;;;;;;;37.38;12.56543;95078.38;;;;
2020/04/22 11:13:56;;;;;;;5.900001;4;;;;;;;37.33;12.65723;95080.19;;;;
2020/04/22 11:14:57;;;;;;;5.900001;4;;;;;;;37.33;12.65723;95080.19;;;;
2020/04/22 11:15:57;;;;;;;5.900001;3.95;;;;;;;37.26;12.58594;95074.98;;;;